Time;durP1;ratioP1;P1;durP2;ratioP2;P2;SDS_P1;SDS_P2;PMS_P1;PMS_P2;Temp;Humidity;BMP_temperature;BMP_pressure;BME280_temperature;BME280_humidity;BME280_pressure;Samples;Min_cycle;Max_cycle;Signal;HPM_P1;HPM_P2
2021/12/20 00:00:39;;;;;;;23.08;5.25;;;;;;;;;;5032701;28;20468;-88
2021/12/20 00:03:05;;;;;;;18.58;4.35;;;;;;;;;;5014747;28;20022;-89
2021/12/20 00:05:30;;;;;;;18.30;6.40;;;;;;;;;;5017285;28;20021;-88
2021/12/20 00:07:56;;;;;;;15.57;5.32;;;;;;;;;;5035361;28;20052;-89
2021/12/20 00:10:21;;;;;;;14.85;4.45;;;;;;;;;;5035507;28;20030;-88
2021/12/20 00:12:47;;;;;;;15.73;6.47;;;;;;;;;;5018492;28;20021;-88
2021/12/20 00:15:12;;;;;;;18.45;5.07;;;;;;;;;;5017551;28;20032;-88
2021/12/20 00:17:38;;;;;;;13.45;4.90;;;;;;;;;;5017517;28;20091;-88
2021/12/20 00:20:04;;;;;;;19.10;4.57;;;;;;;;;;5035232;28;20071;-88
2021/12/20 00:22:29;;;;;;;19.10;4.97;;;;;;;;;;5035869;28;20469;-88
2021/12/20 00:24:54;;;;;;;16.63;4.45;;;;;;;;;;5035292;28;20100;-88
2021/12/20 00:27:20;;;;;;;14.77;4.32;;;;;;;;;;5035060;28;20025;-89
2021/12/20 00:29:46;;;;;;;14.40;4.72;;;;;;;;;;5017475;28;20100;-88
2021/12/20 00:32:11;;;;;;;15.32;4.85;;;;;;;;;;5034853;28;20491;-88
2021/12/20 00:34:37;;;;;;;20.92;5.53;;;;;;;;;;5034848;28;20029;-88
2021/12/20 00:37:05;;;;;;;18.67;5.32;;;;;;;;;;5034822;28;20022;-88
2021/12/20 00:42:15;;;;;;;14.85;5.40;;;;;;;;;;5035051;28;20025;-88
2021/12/20 00:44:40;;;;;;;15.07;4.20;;;;;;;;;;5035107;28;20033;-88
2021/12/20 00:47:06;;;;;;;19.48;5.10;;;;;;;;;;5017019;28;20036;-88
2021/12/20 00:49:31;;;;;;;12.00;3.85;;;;;;;;;;5034517;28;20032;-88
2021/12/20 00:51:56;;;;;;;14.18;4.65;;;;;;;;;;5034785;28;20524;-88
2021/12/20 00:54:21;;;;;;;12.57;4.05;;;;;;;;;;5016873;28;20484;-88
2021/12/20 00:56:48;;;;;;;15.60;4.40;;;;;;;;;;5016899;28;20022;-89
2021/12/20 00:59:14;;;;;;;16.25;5.63;;;;;;;;;;5034726;28;20492;-88
2021/12/20 01:01:39;;;;;;;20.67;5.57;;;;;;;;;;5034227;28;20049;-88
2021/12/20 01:04:04;;;;;;;13.43;4.95;;;;;;;;;;5014110;28;20018;-88
2021/12/20 01:06:30;;;;;;;15.05;4.55;;;;;;;;;;5031775;28;20064;-88
2021/12/20 01:08:55;;;;;;;17.00;4.13;;;;;;;;;;5013901;28;20041;-88
2021/12/20 01:11:24;;;;;;;14.65;4.03;;;;;;;;;;5031302;28;20384;-89
2021/12/20 01:13:50;;;;;;;13.52;4.10;;;;;;;;;;5030664;28;20028;-89
2021/12/20 01:16:16;;;;;;;13.40;4.38;;;;;;;;;;5013216;28;20018;-88
2021/12/20 01:18:41;;;;;;;15.23;4.03;;;;;;;;;;5013426;28;20022;-89
2021/12/20 01:21:08;;;;;;;17.02;4.65;;;;;;;;;;5013047;28;20025;-89
2021/12/20 01:23:34;;;;;;;18.02;4.47;;;;;;;;;;5031431;28;20080;-88
2021/12/20 01:26:00;;;;;;;13.30;3.70;;;;;;;;;;5031297;28;20028;-89
2021/12/20 01:28:25;;;;;;;15.95;4.25;;;;;;;;;;5030761;28;20478;-89
2021/12/20 01:30:50;;;;;;;18.08;4.90;;;;;;;;;;5031043;28;20523;-89
2021/12/20 01:33:16;;;;;;;20.95;4.78;;;;;;;;;;5031032;28;20014;-89
2021/12/20 01:35:41;;;;;;;13.85;4.78;;;;;;;;;;5014193;28;20017;-88
2021/12/20 01:38:07;;;;;;;12.80;3.58;;;;;;;;;;5031756;28;20450;-88
2021/12/20 01:40:35;;;;;;;14.30;3.95;;;;;;;;;;5013381;28;20071;-88
2021/12/20 01:43:00;;;;;;;11.65;3.65;;;;;;;;;;5031872;28;20032;-88
2021/12/20 01:45:27;;;;;;;15.02;3.30;;;;;;;;;;5032023;28;20049;-88
2021/12/20 01:48:02;;;;;;;14.80;3.88;;;;;;;;;;5030927;28;20420;-88
2021/12/20 01:53:11;;;;;;;14.32;3.45;;;;;;;;;;5031312;28;20025;-88
2021/12/20 01:55:37;;;;;;;16.92;4.03;;;;;;;;;;5030763;28;20529;-88
2021/12/20 01:58:02;;;;;;;15.10;4.05;;;;;;;;;;5012698;28;20021;-88
2021/12/20 02:00:28;;;;;;;13.38;3.42;;;;;;;;;;5012734;28;20469;-88
2021/12/20 02:03:00;;;;;;;14.57;4.38;;;;;;;;;;5012575;28;20060;-88
2021/12/20 02:05:48;;;;;;;14.80;3.58;;;;;;;;;;5030841;28;20021;-88
2021/12/20 02:08:18;;;;;;;11.02;3.58;;;;;;;;;;5031421;28;20040;-88
2021/12/20 02:10:44;;;;;;;16.38;4.78;;;;;;;;;;5031491;28;20541;-88
2021/12/20 02:13:11;;;;;;;12.98;4.18;;;;;;;;;;5030340;28;20049;-88
2021/12/20 02:15:36;;;;;;;14.93;5.63;;;;;;;;;;5012550;28;20030;-88
2021/12/20 02:18:02;;;;;;;18.42;3.55;;;;;;;;;;5030367;28;20025;-88
2021/12/20 02:20:28;;;;;;;14.88;4.03;;;;;;;;;;5030898;28;20021;-88
2021/12/20 02:22:55;;;;;;;19.27;4.05;;;;;;;;;;5012995;28;20037;-88
2021/12/20 02:25:20;;;;;;;16.65;3.95;;;;;;;;;;5014710;28;20017;-88
2021/12/20 02:27:45;;;;;;;12.82;4.45;;;;;;;;;;5034207;28;20439;-88
2021/12/20 02:30:34;;;;;;;14.00;3.40;;;;;;;;;;5016369;28;20018;-88
2021/12/20 02:38:19;;;;;;;12.43;3.25;;;;;;;;;;5034639;28;20084;-88
2021/12/20 02:40:45;;;;;;;13.45;3.58;;;;;;;;;;5033895;28;20021;-88
2021/12/20 02:43:14;;;;;;;9.18;3.38;;;;;;;;;;5034263;28;20033;-88
2021/12/20 02:45:40;;;;;;;12.30;3.50;;;;;;;;;;5015992;28;20429;-88
2021/12/20 02:48:05;;;;;;;14.25;4.07;;;;;;;;;;5033875;28;20029;-88
2021/12/20 02:50:31;;;;;;;13.52;3.67;;;;;;;;;;5015962;28;20014;-88
2021/12/20 02:52:56;;;;;;;16.07;3.80;;;;;;;;;;5015842;28;20021;-88
2021/12/20 02:55:21;;;;;;;10.30;3.63;;;;;;;;;;5016236;28;20303;-88
2021/12/20 02:57:46;;;;;;;16.67;3.80;;;;;;;;;;5015880;28;20029;-88
2021/12/20 03:00:12;;;;;;;13.85;3.72;;;;;;;;;;5034090;28;20017;-88
2021/12/20 03:02:38;;;;;;;9.65;3.80;;;;;;;;;;5034147;28;20028;-88
2021/12/20 03:05:03;;;;;;;9.52;3.70;;;;;;;;;;5015618;28;20120;-88
2021/12/20 03:07:28;;;;;;;11.05;3.13;;;;;;;;;;5033482;28;20061;-88
2021/12/20 03:10:00;;;;;;;12.18;3.50;;;;;;;;;;5015851;28;20152;-88
2021/12/20 03:12:28;;;;;;;13.30;3.70;;;;;;;;;;5033532;28;20033;-88
2021/12/20 03:15:00;;;;;;;16.48;3.30;;;;;;;;;;5015580;28;20030;-88
2021/12/20 03:17:25;;;;;;;19.65;4.45;;;;;;;;;;5015694;28;20033;-88
2021/12/20 03:19:50;;;;;;;13.35;4.03;;;;;;;;;;5016124;28;20084;-88
2021/12/20 03:22:17;;;;;;;12.63;3.93;;;;;;;;;;5034732;28;20025;-88
2021/12/20 03:24:42;;;;;;;11.45;3.67;;;;;;;;;;5035008;28;20264;-88
2021/12/20 03:27:07;;;;;;;17.85;3.40;;;;;;;;;;5016121;28;20021;-88
2021/12/20 03:29:32;;;;;;;12.77;3.65;;;;;;;;;;5016184;28;20029;-88
2021/12/20 03:31:58;;;;;;;15.63;4.28;;;;;;;;;;5015519;28;20488;-88
2021/12/20 03:34:23;;;;;;;13.25;3.75;;;;;;;;;;5033713;28;20022;-88
2021/12/20 03:36:48;;;;;;;10.02;3.63;;;;;;;;;;5014100;28;20029;-88
2021/12/20 03:39:13;;;;;;;11.15;3.97;;;;;;;;;;5015302;28;20021;-88
2021/12/20 03:41:39;;;;;;;10.82;3.58;;;;;;;;;;5015436;28;20124;-88
2021/12/20 03:44:06;;;;;;;14.15;3.67;;;;;;;;;;5015009;28;20025;-88
2021/12/20 03:46:32;;;;;;;12.27;3.50;;;;;;;;;;5015364;28;20060;-88
2021/12/20 03:48:57;;;;;;;10.77;3.28;;;;;;;;;;5033569;28;20393;-88
2021/12/20 03:51:22;;;;;;;15.02;3.47;;;;;;;;;;5032785;28;20022;-88
2021/12/20 03:53:47;;;;;;;13.65;3.70;;;;;;;;;;5014662;28;20488;-88
2021/12/20 03:56:13;;;;;;;13.45;3.90;;;;;;;;;;5033180;28;20471;-88
2021/12/20 03:58:39;;;;;;;9.95;3.45;;;;;;;;;;5032697;28;20049;-88
2021/12/20 04:01:10;;;;;;;11.93;3.10;;;;;;;;;;5014844;28;20027;-88
2021/12/20 04:03:35;;;;;;;10.68;3.10;;;;;;;;;;5032455;28;20055;-88
2021/12/20 04:06:02;;;;;;;13.52;3.60;;;;;;;;;;5014567;28;20021;-88
2021/12/20 04:08:28;;;;;;;10.95;3.30;;;;;;;;;;5014280;28;20037;-88
2021/12/20 04:10:53;;;;;;;10.77;3.40;;;;;;;;;;5014958;28;20029;-88
2021/12/20 04:13:18;;;;;;;15.30;3.73;;;;;;;;;;5015332;28;20112;-88
2021/12/20 04:15:43;;;;;;;14.48;3.92;;;;;;;;;;5015936;28;20667;-88
2021/12/20 04:18:08;;;;;;;10.20;3.37;;;;;;;;;;5015689;28;20451;-88
2021/12/20 04:20:34;;;;;;;9.38;3.05;;;;;;;;;;5015809;28;20260;-88
2021/12/20 04:22:59;;;;;;;10.45;3.78;;;;;;;;;;5015221;28;20021;-88
2021/12/20 04:25:25;;;;;;;10.77;3.58;;;;;;;;;;5032147;28;20021;-88
2021/12/20 04:27:50;;;;;;;19.33;4.32;;;;;;;;;;5031843;28;20096;-88
2021/12/20 04:30:15;;;;;;;10.98;3.58;;;;;;;;;;5014183;28;20025;-87
2021/12/20 04:32:42;;;;;;;14.98;4.50;;;;;;;;;;5031776;28;20017;-88
2021/12/20 04:35:08;;;;;;;12.95;3.60;;;;;;;;;;5014031;28;20114;-88
2021/12/20 04:37:33;;;;;;;12.32;3.53;;;;;;;;;;5014646;28;20064;-88
2021/12/20 04:39:59;;;;;;;9.95;3.78;;;;;;;;;;5033309;28;20032;-88
2021/12/20 04:42:24;;;;;;;10.30;3.95;;;;;;;;;;5015456;28;20017;-88
2021/12/20 04:44:50;;;;;;;9.27;3.92;;;;;;;;;;5031730;28;20357;-88
2021/12/20 04:47:15;;;;;;;7.90;3.40;;;;;;;;;;5014127;28;20560;-88
2021/12/20 04:49:40;;;;;;;8.95;3.60;;;;;;;;;;5013996;28;20033;-89
2021/12/20 04:52:05;;;;;;;9.83;3.90;;;;;;;;;;5013969;28;20049;-88
2021/12/20 04:54:31;;;;;;;11.98;3.80;;;;;;;;;;5014207;28;20290;-88
2021/12/20 04:56:56;;;;;;;13.10;3.67;;;;;;;;;;5031616;28;20029;-88
2021/12/20 04:59:21;;;;;;;9.97;3.60;;;;;;;;;;5013811;28;20026;-88
2021/12/20 05:01:46;;;;;;;17.50;4.07;;;;;;;;;;5013742;28;20823;-88
2021/12/20 05:04:11;;;;;;;10.80;3.45;;;;;;;;;;5031652;28;20017;-88
2021/12/20 05:06:37;;;;;;;13.50;3.95;;;;;;;;;;5031625;28;20021;-88
2021/12/20 05:09:04;;;;;;;13.07;3.35;;;;;;;;;;5014231;28;20037;-88
2021/12/20 05:11:31;;;;;;;10.18;3.92;;;;;;;;;;5032730;28;20029;-88
2021/12/20 05:13:56;;;;;;;10.82;4.15;;;;;;;;;;5014773;28;20018;-88
2021/12/20 05:16:21;;;;;;;10.98;2.95;;;;;;;;;;5031442;28;20018;-88
2021/12/20 05:18:46;;;;;;;12.00;3.80;;;;;;;;;;5013349;28;20469;-88
2021/12/20 05:21:12;;;;;;;12.20;3.33;;;;;;;;;;5031734;28;20029;-88
2021/12/20 05:23:37;;;;;;;10.20;3.25;;;;;;;;;;5031502;28;20052;-88
2021/12/20 05:26:02;;;;;;;11.13;3.10;;;;;;;;;;5013435;28;20537;-88
2021/12/20 05:28:27;;;;;;;10.93;4.38;;;;;;;;;;5013049;28;20294;-88
2021/12/20 05:30:53;;;;;;;5.97;3.20;;;;;;;;;;5013374;28;20057;-88
2021/12/20 05:33:19;;;;;;;8.85;3.20;;;;;;;;;;5031402;28;20306;-87
2021/12/20 05:35:44;;;;;;;11.98;3.05;;;;;;;;;;5030928;28;20163;-88
2021/12/20 05:38:09;;;;;;;12.03;3.97;;;;;;;;;;5012949;28;20060;-88
2021/12/20 05:40:35;;;;;;;11.75;2.78;;;;;;;;;;5030690;28;20288;-88
2021/12/20 05:43:00;;;;;;;9.23;3.38;;;;;;;;;;5030778;28;20017;-88
2021/12/20 05:45:25;;;;;;;7.85;3.38;;;;;;;;;;5030651;28;20057;-88
2021/12/20 05:47:50;;;;;;;9.43;3.73;;;;;;;;;;5030582;28;20041;-88
2021/12/20 05:50:17;;;;;;;10.07;3.00;;;;;;;;;;5030685;28;20264;-88
2021/12/20 05:52:42;;;;;;;8.75;3.20;;;;;;;;;;5030798;28;20257;-88
2021/12/20 05:55:08;;;;;;;11.50;3.13;;;;;;;;;;5031365;28;20030;-88
2021/12/20 05:57:34;;;;;;;10.02;3.67;;;;;;;;;;5013528;28;20021;-88
2021/12/20 06:00:00;;;;;;;9.20;2.83;;;;;;;;;;5030090;28;20034;-88
2021/12/20 06:02:25;;;;;;;5.40;2.42;;;;;;;;;;5030661;28;20032;-88
2021/12/20 06:04:51;;;;;;;13.15;3.40;;;;;;;;;;5011827;28;20025;-88
2021/12/20 06:07:19;;;;;;;7.63;3.40;;;;;;;;;;5017363;28;20366;-88
2021/12/20 06:09:45;;;;;;;9.07;2.83;;;;;;;;;;5026615;28;20037;-87
2021/12/20 06:12:10;;;;;;;15.32;3.55;;;;;;;;;;5031026;28;20670;-88
2021/12/20 06:14:35;;;;;;;8.23;3.10;;;;;;;;;;5031850;28;20668;-88
2021/12/20 06:17:01;;;;;;;13.40;4.50;;;;;;;;;;5033153;28;20024;-88
2021/12/20 06:19:26;;;;;;;10.70;3.00;;;;;;;;;;5014882;28;20060;-88
2021/12/20 06:21:52;;;;;;;11.73;3.20;;;;;;;;;;5032943;28;20021;-88
2021/12/20 06:24:17;;;;;;;12.18;3.90;;;;;;;;;;5013916;28;20117;-88
2021/12/20 06:26:42;;;;;;;9.25;3.13;;;;;;;;;;5011447;28;20125;-88
2021/12/20 06:29:08;;;;;;;9.02;2.97;;;;;;;;;;4993851;28;20040;-88
2021/12/20 06:31:33;;;;;;;12.98;4.15;;;;;;;;;;4995311;28;20466;-88
2021/12/20 06:33:58;;;;;;;9.77;2.72;;;;;;;;;;5012727;28;20033;-88
2021/12/20 06:36:25;;;;;;;12.63;2.83;;;;;;;;;;4995610;28;20069;-88
2021/12/20 06:38:53;;;;;;;12.18;3.08;;;;;;;;;;4995007;28;20056;-88
2021/12/20 06:41:18;;;;;;;6.72;2.92;;;;;;;;;;4995262;28;20022;-88
2021/12/20 06:43:43;;;;;;;9.70;3.17;;;;;;;;;;4994944;28;20713;-88
2021/12/20 06:46:08;;;;;;;9.63;2.20;;;;;;;;;;5010807;28;20089;-88
2021/12/20 06:48:34;;;;;;;6.13;2.38;;;;;;;;;;4992728;28;20622;-88
2021/12/20 06:50:59;;;;;;;9.50;2.65;;;;;;;;;;4993599;28;20022;-87
2021/12/20 06:53:24;;;;;;;6.85;2.75;;;;;;;;;;5010809;28;20132;-88
2021/12/20 06:55:49;;;;;;;6.47;2.80;;;;;;;;;;5007323;28;20025;-88
2021/12/20 06:58:15;;;;;;;7.95;2.60;;;;;;;;;;5009582;28;20021;-88
2021/12/20 07:00:40;;;;;;;9.65;2.55;;;;;;;;;;5010560;28;20054;-88
2021/12/20 07:03:05;;;;;;;9.23;2.75;;;;;;;;;;4993723;28;20037;-88
2021/12/20 07:05:30;;;;;;;6.15;2.72;;;;;;;;;;5006212;28;20017;-88
2021/12/20 07:07:56;;;;;;;10.20;3.50;;;;;;;;;;5031331;28;20099;-88
2021/12/20 07:10:21;;;;;;;9.40;2.95;;;;;;;;;;5031101;28;20264;-88
2021/12/20 07:12:46;;;;;;;6.47;2.30;;;;;;;;;;5032187;28;20028;-88
2021/12/20 07:15:14;;;;;;;9.90;2.75;;;;;;;;;;5033348;28;20688;-88
2021/12/20 07:17:39;;;;;;;8.15;2.38;;;;;;;;;;5015477;28;20033;-88
2021/12/20 07:20:05;;;;;;;9.18;3.45;;;;;;;;;;5032426;28;20017;-88
2021/12/20 07:22:30;;;;;;;8.32;3.47;;;;;;;;;;4995725;28;20022;-88
2021/12/20 07:24:56;;;;;;;5.68;3.38;;;;;;;;;;4996444;28;20064;-88
2021/12/20 07:27:21;;;;;;;7.93;2.95;;;;;;;;;;4996018;28;20030;-88
2021/12/20 07:29:46;;;;;;;11.20;2.88;;;;;;;;;;4995765;28;20029;-88
2021/12/20 07:32:12;;;;;;;7.93;2.88;;;;;;;;;;4997019;28;20022;-88
2021/12/20 07:34:38;;;;;;;6.53;2.95;;;;;;;;;;5012607;28;20382;-88
2021/12/20 07:37:03;;;;;;;8.00;2.65;;;;;;;;;;5012956;28;20093;-88
2021/12/20 07:39:29;;;;;;;9.18;3.13;;;;;;;;;;4995214;28;20141;-88
2021/12/20 07:41:54;;;;;;;13.30;3.05;;;;;;;;;;4995694;28;20850;-88
2021/12/20 07:44:20;;;;;;;8.80;2.90;;;;;;;;;;4997941;28;20010;-88
2021/12/20 07:46:45;;;;;;;9.02;2.72;;;;;;;;;;5032444;28;20050;-88
2021/12/20 07:49:10;;;;;;;4.93;2.30;;;;;;;;;;5022668;28;20041;-88
2021/12/20 07:51:35;;;;;;;5.93;2.80;;;;;;;;;;5013156;28;20026;-88
2021/12/20 07:54:01;;;;;;;8.10;2.72;;;;;;;;;;5011148;28;20537;-88
2021/12/20 07:56:26;;;;;;;10.90;2.63;;;;;;;;;;5011131;28;20030;-88
2021/12/20 07:58:51;;;;;;;5.85;2.33;;;;;;;;;;4994971;28;20356;-88
2021/12/20 08:01:17;;;;;;;5.97;2.75;;;;;;;;;;5016065;28;20028;-87
2021/12/20 08:03:44;;;;;;;12.60;2.60;;;;;;;;;;5051990;28;20024;-88
2021/12/20 08:06:09;;;;;;;11.10;3.53;;;;;;;;;;5027767;28;20489;-87
2021/12/20 08:08:35;;;;;;;9.85;3.00;;;;;;;;;;5008790;28;20053;-88
2021/12/20 08:11:00;;;;;;;8.25;2.50;;;;;;;;;;4994277;28;20026;-88
2021/12/20 08:13:25;;;;;;;7.45;2.40;;;;;;;;;;5012926;28;20025;-88
2021/12/20 08:15:51;;;;;;;7.95;3.08;;;;;;;;;;4995497;28;20022;-88
2021/12/20 08:18:16;;;;;;;8.73;2.78;;;;;;;;;;5012520;28;20022;-88
2021/12/20 08:20:41;;;;;;;5.27;2.67;;;;;;;;;;4994596;28;20018;-88
2021/12/20 08:23:06;;;;;;;5.93;2.40;;;;;;;;;;4994442;28;20268;-88
2021/12/20 08:25:31;;;;;;;8.25;2.58;;;;;;;;;;5012842;28;20033;-88
2021/12/20 08:27:57;;;;;;;9.30;2.42;;;;;;;;;;5012156;28;20026;-88
2021/12/20 08:30:22;;;;;;;8.63;3.05;;;;;;;;;;5015225;28;20103;-88
2021/12/20 08:32:48;;;;;;;7.15;2.78;;;;;;;;;;5007506;28;20489;-88
2021/12/20 08:35:14;;;;;;;10.13;2.47;;;;;;;;;;5012168;28;20029;-88
2021/12/20 08:37:39;;;;;;;10.85;3.28;;;;;;;;;;5025385;28;20026;-88
2021/12/20 08:40:05;;;;;;;4.53;2.28;;;;;;;;;;5013593;28;20896;-88
2021/12/20 08:42:31;;;;;;;9.75;2.83;;;;;;;;;;5026964;28;20105;-88
2021/12/20 08:44:56;;;;;;;5.75;2.58;;;;;;;;;;5001523;28;20124;-88
2021/12/20 08:47:21;;;;;;;5.63;2.63;;;;;;;;;;5013699;28;20033;-88
2021/12/20 08:49:47;;;;;;;6.95;2.47;;;;;;;;;;5013294;28;20784;-87
2021/12/20 08:52:12;;;;;;;10.35;2.88;;;;;;;;;;5013063;28;20022;-88
2021/12/20 08:54:39;;;;;;;9.18;3.92;;;;;;;;;;5013766;28;20531;-88
2021/12/20 08:57:05;;;;;;;7.55;2.65;;;;;;;;;;5013426;28;20072;-88
2021/12/20 08:59:31;;;;;;;8.38;2.85;;;;;;;;;;5019232;28;20030;-88
2021/12/20 09:01:57;;;;;;;6.55;3.25;;;;;;;;;;4993867;28;20018;-88
2021/12/20 09:04:23;;;;;;;12.30;3.58;;;;;;;;;;5014322;28;20017;-88
2021/12/20 09:06:49;;;;;;;17.02;3.40;;;;;;;;;;5031205;28;20231;-88
2021/12/20 09:09:15;;;;;;;11.10;4.18;;;;;;;;;;5031016;28;20032;-87
2021/12/20 09:11:41;;;;;;;13.73;4.57;;;;;;;;;;5030651;28;20034;-88
2021/12/20 09:14:06;;;;;;;9.63;4.25;;;;;;;;;;5012688;28;20093;-87
2021/12/20 09:16:31;;;;;;;8.43;4.22;;;;;;;;;;5008561;28;20105;-88
2021/12/20 09:18:57;;;;;;;11.95;3.72;;;;;;;;;;5010619;28;20413;-87
2021/12/20 09:21:22;;;;;;;12.30;4.78;;;;;;;;;;5011114;28;20057;-88
2021/12/20 09:23:47;;;;;;;10.85;3.80;;;;;;;;;;4993182;28;20508;-88
2021/12/20 09:26:13;;;;;;;13.43;4.75;;;;;;;;;;5028764;28;20783;-88
2021/12/20 09:28:38;;;;;;;11.27;4.73;;;;;;;;;;5024832;28;20033;-88
2021/12/20 09:31:04;;;;;;;12.07;4.55;;;;;;;;;;5001745;28;20269;-88
2021/12/20 09:33:30;;;;;;;11.25;4.00;;;;;;;;;;5008983;28;20792;-88
2021/12/20 09:35:55;;;;;;;16.27;5.15;;;;;;;;;;5026365;28;20025;-87
2021/12/20 09:38:21;;;;;;;12.75;4.60;;;;;;;;;;5020845;28;20033;-88
2021/12/20 09:43:31;;;;;;;11.27;4.82;;;;;;;;;;5025262;28;20161;-88
2021/12/20 09:45:57;;;;;;;15.77;5.30;;;;;;;;;;5011237;28;20132;-88
2021/12/20 09:48:22;;;;;;;10.77;5.20;;;;;;;;;;5010906;28;20028;-88
2021/12/20 09:50:48;;;;;;;16.05;5.43;;;;;;;;;;5024408;28;20742;-87
2021/12/20 09:53:14;;;;;;;12.23;5.22;;;;;;;;;;5025388;28;20029;-88
2021/12/20 09:55:43;;;;;;;9.15;4.20;;;;;;;;;;5028756;28;20028;-88
2021/12/20 09:58:08;;;;;;;16.50;5.20;;;;;;;;;;5029877;28;20469;-87
2021/12/20 10:00:34;;;;;;;15.88;5.80;;;;;;;;;;5006776;28;20014;-88
2021/12/20 10:02:59;;;;;;;9.90;3.70;;;;;;;;;;4992648;28;20076;-88
2021/12/20 10:05:24;;;;;;;12.43;4.97;;;;;;;;;;4995488;28;20029;-87
2021/12/20 10:07:51;;;;;;;24.98;4.18;;;;;;;;;;5030327;28;20025;-88
2021/12/20 10:10:35;;;;;;;18.75;4.60;;;;;;;;;;5012519;28;20026;-88
2021/12/20 10:13:00;;;;;;;8.55;3.13;;;;;;;;;;5029894;28;20108;-88
2021/12/20 10:15:31;;;;;;;10.85;2.97;;;;;;;;;;5031249;28;20431;-88
2021/12/20 10:17:59;;;;;;;6.57;3.50;;;;;;;;;;5013966;28;20076;-88
2021/12/20 10:20:26;;;;;;;7.00;3.00;;;;;;;;;;5012835;28;20021;-88
2021/12/20 10:22:52;;;;;;;11.73;3.50;;;;;;;;;;5012298;28;20025;-88
2021/12/20 10:25:28;;;;;;;13.27;4.57;;;;;;;;;;5029855;28;20092;-88
2021/12/20 10:27:54;;;;;;;11.45;3.70;;;;;;;;;;5012363;28;20021;-88
2021/12/20 10:30:21;;;;;;;12.90;4.55;;;;;;;;;;5012490;28;20451;-88
2021/12/20 10:32:47;;;;;;;7.97;3.40;;;;;;;;;;5024989;28;20034;-88
2021/12/20 10:35:28;;;;;;;7.55;3.92;;;;;;;;;;5012681;28;20026;-88
2021/12/20 10:37:54;;;;;;;7.72;3.75;;;;;;;;;;5028089;28;20129;-88
2021/12/20 10:40:19;;;;;;;8.68;3.13;;;;;;;;;;5010592;28;20124;-88
2021/12/20 10:42:45;;;;;;;6.00;2.83;;;;;;;;;;5010142;28;20112;-88
2021/12/20 10:45:13;;;;;;;14.32;4.00;;;;;;;;;;5011882;28;20053;-88
2021/12/20 10:47:39;;;;;;;7.82;3.42;;;;;;;;;;4998786;28;20025;-87
2021/12/20 10:50:20;;;;;;;5.45;3.17;;;;;;;;;;4998085;28;20022;-87
2021/12/20 10:52:46;;;;;;;;;;;;;;;;;;5016311;28;20026;-88
2021/12/20 10:55:11;;;;;;;9.13;3.03;;;;;;;;;;4998322;28;19905;-88
2021/12/20 10:57:36;;;;;;;8.38;2.50;;;;;;;;;;5014718;28;20072;-88
2021/12/20 11:00:17;;;;;;;7.82;3.75;;;;;;;;;;5015784;28;20021;-88
2021/12/20 11:03:48;;;;;;;8.65;3.03;;;;;;;;;;5035538;28;20024;-88
2021/12/20 11:11:29;;;;;;;6.53;2.53;;;;;;;;;;5027298;28;20036;-88
2021/12/20 11:13:57;;;;;;;6.22;3.17;;;;;;;;;;5034968;28;20025;-88
2021/12/20 11:16:30;;;;;;;11.75;3.47;;;;;;;;;;5018429;28;20022;-88
2021/12/20 11:19:07;;;;;;;10.35;2.92;;;;;;;;;;5034448;28;20385;-88
2021/12/20 11:21:34;;;;;;;7.05;2.92;;;;;;;;;;5015715;28;20397;-88
2021/12/20 11:23:59;;;;;;;10.27;2.72;;;;;;;;;;5033420;28;20072;-88
2021/12/20 11:26:27;;;;;;;13.38;2.90;;;;;;;;;;5017194;28;20021;-88
2021/12/20 11:28:52;;;;;;;7.75;2.58;;;;;;;;;;5034995;28;20043;-88
2021/12/20 11:31:18;;;;;;;14.60;3.38;;;;;;;;;;5033090;28;20096;-88
2021/12/20 11:33:43;;;;;;;8.20;2.33;;;;;;;;;;5014725;28;20071;-88
2021/12/20 11:36:10;;;;;;;9.63;3.30;;;;;;;;;;5033075;28;20029;-88
2021/12/20 11:38:36;;;;;;;7.25;2.67;;;;;;;;;;5028094;28;20113;-88
2021/12/20 11:41:01;;;;;;;6.53;3.08;;;;;;;;;;5013580;28;20105;-88
2021/12/20 11:43:26;;;;;;;10.43;2.60;;;;;;;;;;4995303;28;20067;-89
2021/12/20 11:45:52;;;;;;;7.55;2.88;;;;;;;;;;4995354;28;20141;-88
2021/12/20 11:48:20;;;;;;;8.73;2.45;;;;;;;;;;4995358;28;20048;-88
2021/12/20 11:50:45;;;;;;;9.68;2.30;;;;;;;;;;5013039;28;20072;-88
2021/12/20 11:53:12;;;;;;;8.60;2.40;;;;;;;;;;5013331;28;20049;-88
2021/12/20 11:55:43;;;;;;;7.18;2.80;;;;;;;;;;5012492;28;20022;-88
2021/12/20 11:58:35;;;;;;;8.40;2.53;;;;;;;;;;4994211;28;20022;-88
2021/12/20 12:01:02;;;;;;;7.53;2.70;;;;;;;;;;5008405;28;20034;-88
2021/12/20 12:03:29;;;;;;;9.52;2.58;;;;;;;;;;5012448;28;20061;-88
2021/12/20 12:05:56;;;;;;;9.10;2.90;;;;;;;;;;4994869;28;20104;-88
2021/12/20 12:08:21;;;;;;;4.70;2.45;;;;;;;;;;4994585;28;20791;-88
2021/12/20 12:10:46;;;;;;;8.88;2.60;;;;;;;;;;5018547;28;20017;-88
2021/12/20 12:13:15;;;;;;;7.18;3.13;;;;;;;;;;5013955;28;20111;-88
2021/12/20 12:16:03;;;;;;;6.88;2.90;;;;;;;;;;5032298;28;20017;-88
2021/12/20 12:18:45;;;;;;;10.95;3.15;;;;;;;;;;4995672;28;20018;-88
2021/12/20 12:21:29;;;;;;;11.60;3.80;;;;;;;;;;5011458;28;20026;-88
2021/12/20 12:23:54;;;;;;;6.72;3.00;;;;;;;;;;4995129;28;20596;-88
2021/12/20 12:26:30;;;;;;;6.78;2.80;;;;;;;;;;5010859;28;20022;-88
2021/12/20 12:28:56;;;;;;;8.98;2.80;;;;;;;;;;5011955;28;20544;-88
2021/12/20 12:31:22;;;;;;;9.40;3.00;;;;;;;;;;5010676;28;20029;-88
2021/12/20 12:33:47;;;;;;;7.50;2.95;;;;;;;;;;5011738;28;20033;-88
2021/12/20 12:36:23;;;;;;;6.68;2.30;;;;;;;;;;5010225;28;20029;-88
2021/12/20 12:38:50;;;;;;;6.05;2.50;;;;;;;;;;5012155;28;20022;-87
2021/12/20 12:41:20;;;;;;;9.00;2.50;;;;;;;;;;4995530;28;20053;-90
2021/12/20 12:43:50;;;;;;;13.60;5.00;;;;;;;;;;5012488;28;20075;-88
2021/12/20 12:46:15;;;;;;;11.48;2.65;;;;;;;;;;5010129;28;20148;-88
2021/12/20 12:48:43;;;;;;;4.68;2.42;;;;;;;;;;5011488;28;20841;-88
2021/12/20 12:51:11;;;;;;;7.35;2.85;;;;;;;;;;5011818;28;20026;-88
2021/12/20 12:53:47;;;;;;;17.33;3.20;;;;;;;;;;4994061;28;20087;-88
2021/12/20 12:56:25;;;;;;;9.52;2.80;;;;;;;;;;5011467;28;20029;-88
2021/12/20 12:59:09;;;;;;;15.77;2.85;;;;;;;;;;4997475;28;20551;-88
2021/12/20 13:01:34;;;;;;;6.50;2.55;;;;;;;;;;4993961;28;20026;-88
2021/12/20 13:03:59;;;;;;;7.40;2.88;;;;;;;;;;5011486;28;20032;-88
2021/12/20 13:06:25;;;;;;;5.95;2.50;;;;;;;;;;4996997;28;20032;-89
2021/12/20 13:08:51;;;;;;;9.60;2.70;;;;;;;;;;5013469;28;20038;-88
2021/12/20 13:11:23;;;;;;;6.45;2.60;;;;;;;;;;5031588;28;20100;-88
2021/12/20 13:13:54;;;;;;;;;;;;;;;;;;5014374;28;20032;-88
2021/12/20 13:16:25;;;;;;;6.45;2.40;;;;;;;;;;5031321;28;19913;-88
2021/12/20 13:18:52;;;;;;;12.47;3.07;;;;;;;;;;5007206;28;20124;-88
2021/12/20 13:21:21;;;;;;;6.30;2.25;;;;;;;;;;4993769;28;20036;-88
2021/12/20 13:23:48;;;;;;;6.70;2.50;;;;;;;;;;5011461;28;20014;-88
2021/12/20 13:26:17;;;;;;;9.27;2.33;;;;;;;;;;4993236;28;20112;-89
2021/12/20 13:28:43;;;;;;;11.25;2.60;;;;;;;;;;4993208;28;20036;-88
2021/12/20 13:31:14;;;;;;;7.05;2.05;;;;;;;;;;4993515;28;20018;-88
2021/12/20 13:33:45;;;;;;;11.88;2.65;;;;;;;;;;5010055;28;20030;-88
2021/12/20 13:36:11;;;;;;;11.95;2.95;;;;;;;;;;5011778;28;20437;-88
2021/12/20 13:38:37;;;;;;;6.30;2.28;;;;;;;;;;4993497;28;20141;-88
2021/12/20 13:41:04;;;;;;;21.83;2.45;;;;;;;;;;4993571;28;20032;-88
2021/12/20 13:43:39;;;;;;;8.05;2.17;;;;;;;;;;5011171;28;20033;-88
2021/12/20 13:46:12;;;;;;;12.70;2.60;;;;;;;;;;4993152;28;20058;-88
2021/12/20 13:48:45;;;;;;;11.35;2.38;;;;;;;;;;5011527;28;20371;-88
2021/12/20 13:51:11;;;;;;;10.80;2.58;;;;;;;;;;4993625;28;20033;-88
2021/12/20 13:53:36;;;;;;;6.32;2.78;;;;;;;;;;5010989;28;20030;-88
2021/12/20 13:56:02;;;;;;;10.25;2.72;;;;;;;;;;5011560;28;20021;-88
2021/12/20 13:58:28;;;;;;;8.45;3.03;;;;;;;;;;5009099;28;20032;-89
2021/12/20 14:00:53;;;;;;;10.88;3.95;;;;;;;;;;4992330;28;20113;-88
2021/12/20 14:03:19;;;;;;;11.57;3.47;;;;;;;;;;5009950;28;20038;-88
2021/12/20 14:05:44;;;;;;;8.43;3.25;;;;;;;;;;5009846;28;20029;-88
2021/12/20 14:08:17;;;;;;;12.35;3.50;;;;;;;;;;5010879;28;20026;-88
2021/12/20 14:10:42;;;;;;;14.02;3.60;;;;;;;;;;5029872;28;20033;-87
2021/12/20 14:13:09;;;;;;;8.40;3.38;;;;;;;;;;5012579;28;20094;-88
2021/12/20 14:15:38;;;;;;;9.02;3.30;;;;;;;;;;5013012;28;20032;-88
2021/12/20 14:18:06;;;;;;;12.27;3.38;;;;;;;;;;4996399;28;20021;-88
2021/12/20 14:20:35;;;;;;;8.10;3.67;;;;;;;;;;4993369;28;20040;-88
2021/12/20 14:23:00;;;;;;;9.45;3.25;;;;;;;;;;5013973;28;20977;-88
2021/12/20 14:25:39;;;;;;;10.98;3.58;;;;;;;;;;4997863;28;20026;-88
2021/12/20 14:28:04;;;;;;;10.55;3.00;;;;;;;;;;5013748;28;20679;-88
2021/12/20 14:30:30;;;;;;;11.17;3.00;;;;;;;;;;4996002;28;20041;-88
2021/12/20 14:32:55;;;;;;;7.97;2.85;;;;;;;;;;4996125;28;20292;-88
2021/12/20 14:35:29;;;;;;;8.50;3.10;;;;;;;;;;5025167;28;20025;-88
2021/12/20 14:37:54;;;;;;;6.53;2.65;;;;;;;;;;5034202;28;20025;-88
2021/12/20 14:40:39;;;;;;;11.85;3.40;;;;;;;;;;5034148;28;20021;-88
2021/12/20 14:43:07;;;;;;;7.55;3.20;;;;;;;;;;5015955;28;20025;-88
2021/12/20 14:45:32;;;;;;;5.40;2.55;;;;;;;;;;5033782;28;20133;-88
2021/12/20 14:48:13;;;;;;;15.90;4.53;;;;;;;;;;5033256;28;20096;-88
2021/12/20 14:50:43;;;;;;;9.88;3.63;;;;;;;;;;5002807;28;20029;-88
2021/12/20 14:53:19;;;;;;;11.52;4.03;;;;;;;;;;5025088;28;20021;-88